Time;durP1;ratioP1;P1;durP2;ratioP2;P2;SDS_P1;SDS_P2;PMS_P1;PMS_P2;Temp;Humidity;BMP_temperature;BMP_pressure;BME280_temperature;BME280_humidity;BME280_pressure;Samples;Min_cycle;Max_cycle;Signal;HPM_P1;HPM_P2
2021/01/11 00:00:42;;;;;;;59.13;29.33;;;;;;;;;;5043162;28;20295;-72
2021/01/11 00:03:07;;;;;;;58.93;29.73;;;;;;;;;;5067816;28;20196;-72
2021/01/11 00:05:33;;;;;;;58.33;27.30;;;;;;;;;;5063860;28;20213;-72
2021/01/11 00:07:58;;;;;;;51.57;27.40;;;;;;;;;;5064563;28;20619;-72
2021/01/11 00:10:24;;;;;;;55.77;28.57;;;;;;;;;;5065584;28;20255;-72
2021/01/11 00:12:49;;;;;;;61.17;29.67;;;;;;;;;;5054722;28;20267;-72
2021/01/11 00:15:17;;;;;;;56.87;28.50;;;;;;;;;;5064734;28;20323;-72
2021/01/11 00:17:43;;;;;;;56.63;28.83;;;;;;;;;;5053093;28;20659;-72
2021/01/11 00:20:10;;;;;;;55.53;30.57;;;;;;;;;;5046008;28;20707;-72
2021/01/11 00:22:36;;;;;;;57.67;29.77;;;;;;;;;;5064646;28;20658;-72
2021/01/11 00:25:03;;;;;;;53.07;28.77;;;;;;;;;;5070107;28;20187;-72
2021/01/11 00:27:28;;;;;;;57.03;29.57;;;;;;;;;;5054662;28;20235;-72
2021/01/11 00:29:54;;;;;;;60.33;29.93;;;;;;;;;;5067037;28;20172;-72
2021/01/11 00:32:19;;;;;;;54.30;30.10;;;;;;;;;;5057364;28;20271;-72
2021/01/11 00:34:44;;;;;;;57.17;30.03;;;;;;;;;;5065990;28;20599;-72
2021/01/11 00:37:10;;;;;;;58.70;29.60;;;;;;;;;;5064410;28;20805;-72
2021/01/11 00:39:36;;;;;;;52.57;29.17;;;;;;;;;;5087894;28;20279;-72
2021/01/11 00:42:02;;;;;;;54.57;28.83;;;;;;;;;;5089141;28;20234;-72
2021/01/11 00:44:28;;;;;;;54.20;28.93;;;;;;;;;;5079932;28;20188;-72
2021/01/11 00:47:03;;;;;;;50.97;28.93;;;;;;;;;;5085047;28;20245;-72
2021/01/11 00:49:29;;;;;;;53.90;28.37;;;;;;;;;;5077548;28;20190;-72
2021/01/11 00:51:54;;;;;;;53.90;28.33;;;;;;;;;;5086319;28;20536;-72
2021/01/11 00:54:20;;;;;;;53.27;29.43;;;;;;;;;;5079837;28;20527;-72
2021/01/11 00:56:45;;;;;;;64.63;30.40;;;;;;;;;;5083958;28;20632;-71
2021/01/11 00:59:13;;;;;;;56.00;29.63;;;;;;;;;;5060521;28;20204;-72
2021/01/11 01:01:38;;;;;;;56.83;29.47;;;;;;;;;;5062261;28;20176;-72
2021/01/11 01:04:05;;;;;;;58.17;29.90;;;;;;;;;;5076415;28;20643;-72
2021/01/11 01:06:30;;;;;;;67.03;30.57;;;;;;;;;;5086547;28;20204;-72
2021/01/11 01:08:55;;;;;;;57.07;29.87;;;;;;;;;;5073985;28;20188;-71
2021/01/11 01:11:21;;;;;;;64.97;31.50;;;;;;;;;;5087065;28;20254;-71
2021/01/11 01:13:48;;;;;;;56.83;30.73;;;;;;;;;;5085352;28;20195;-72
2021/01/11 01:16:13;;;;;;;59.47;30.30;;;;;;;;;;5077944;28;20565;-72
2021/01/11 01:18:41;;;;;;;57.00;29.70;;;;;;;;;;5084668;28;20250;-72
2021/01/11 01:21:06;;;;;;;62.20;30.73;;;;;;;;;;5078240;28;20188;-72
2021/01/11 01:23:31;;;;;;;60.80;30.63;;;;;;;;;;5086256;28;20187;-72
2021/01/11 01:25:57;;;;;;;63.70;30.83;;;;;;;;;;5079317;28;20635;-72
2021/01/11 01:28:22;;;;;;;58.33;28.33;;;;;;;;;;5084577;28;20281;-72
2021/01/11 01:30:48;;;;;;;65.13;31.33;;;;;;;;;;5077837;28;20179;-72
2021/01/11 01:33:13;;;;;;;69.43;32.00;;;;;;;;;;5069898;28;20539;-72
2021/01/11 01:35:38;;;;;;;71.90;33.50;;;;;;;;;;5073614;28;20196;-72
2021/01/11 01:38:04;;;;;;;63.63;31.57;;;;;;;;;;5074128;28;20218;-72
2021/01/11 01:40:29;;;;;;;64.37;30.90;;;;;;;;;;5059649;28;20215;-73
2021/01/11 01:42:54;;;;;;;62.50;31.73;;;;;;;;;;5041103;28;20268;-72
2021/01/11 01:45:20;;;;;;;63.73;30.77;;;;;;;;;;5068843;28;20180;-72
2021/01/11 01:47:46;;;;;;;65.97;32.70;;;;;;;;;;5034803;28;20196;-72
2021/01/11 01:50:12;;;;;;;62.10;31.43;;;;;;;;;;5073620;28;20231;-72
2021/01/11 01:52:38;;;;;;;71.60;34.67;;;;;;;;;;5056037;28;20177;-72
2021/01/11 01:55:05;;;;;;;67.67;32.57;;;;;;;;;;5067014;28;20188;-72
2021/01/11 01:57:32;;;;;;;72.37;34.20;;;;;;;;;;5037681;28;20181;-72
2021/01/11 01:59:58;;;;;;;75.03;34.67;;;;;;;;;;5067842;28;20279;-72
2021/01/11 02:02:23;;;;;;;78.93;36.30;;;;;;;;;;5055329;28;20740;-72
2021/01/11 02:04:49;;;;;;;70.03;33.73;;;;;;;;;;5065004;28;20173;-72
2021/01/11 02:07:51;;;;;;;75.70;34.93;;;;;;;;;;5057254;28;20208;-73
2021/01/11 02:10:30;;;;;;;70.93;33.67;;;;;;;;;;5063200;28;20659;-72
2021/01/11 02:13:27;;;;;;;72.73;33.43;;;;;;;;;;5046301;28;20185;-72
2021/01/11 02:16:01;;;;;;;77.00;34.80;;;;;;;;;;5066963;28;20627;-72
2021/01/11 02:18:36;;;;;;;79.50;35.07;;;;;;;;;;5056118;28;20201;-72
2021/01/11 02:21:35;;;;;;;81.00;34.10;;;;;;;;;;5068392;28;20280;-72
2021/01/11 02:24:31;;;;;;;73.60;34.30;;;;;;;;;;5060802;28;20229;-72
2021/01/11 02:27:12;;;;;;;71.67;33.90;;;;;;;;;;5069249;28;20189;-72
2021/01/11 02:30:02;;;;;;;71.30;33.00;;;;;;;;;;5059517;28;20194;-72
2021/01/11 02:32:29;;;;;;;80.10;33.17;;;;;;;;;;5069063;28;20193;-72
2021/01/11 02:34:55;;;;;;;74.73;33.63;;;;;;;;;;5059565;28;20773;-72
2021/01/11 02:37:21;;;;;;;76.20;34.37;;;;;;;;;;5076817;28;20228;-72
2021/01/11 02:39:47;;;;;;;75.67;33.53;;;;;;;;;;5079796;28;20654;-72
2021/01/11 02:42:12;;;;;;;72.33;32.20;;;;;;;;;;5090451;28;20654;-72
2021/01/11 02:44:37;;;;;;;80.83;34.10;;;;;;;;;;5059399;28;20192;-73
2021/01/11 02:47:03;;;;;;;78.23;34.00;;;;;;;;;;5090547;28;20262;-72
2021/01/11 02:49:41;;;;;;;76.90;34.80;;;;;;;;;;5082921;28;20540;-72
2021/01/11 02:52:20;;;;;;;75.63;32.00;;;;;;;;;;5088408;28;20184;-72
2021/01/11 02:54:51;;;;;;;72.50;32.77;;;;;;;;;;5064686;28;20195;-72
2021/01/11 02:57:34;;;;;;;72.73;31.73;;;;;;;;;;5089784;28;20172;-72
2021/01/11 03:00:05;;;;;;;78.10;32.30;;;;;;;;;;5081076;28;20402;-72
2021/01/11 03:02:35;;;;;;;75.03;32.73;;;;;;;;;;5089492;28;20241;-72
2021/01/11 03:05:01;;;;;;;76.37;34.27;;;;;;;;;;5065002;28;20275;-72
2021/01/11 03:07:27;;;;;;;69.63;30.73;;;;;;;;;;5091727;28;20203;-72
2021/01/11 03:09:52;;;;;;;78.83;34.07;;;;;;;;;;5061239;28;20247;-72
2021/01/11 03:12:18;;;;;;;75.87;33.90;;;;;;;;;;5091154;28;20202;-72
2021/01/11 03:14:43;;;;;;;78.13;33.47;;;;;;;;;;5089858;28;20282;-72
2021/01/11 03:17:08;;;;;;;75.17;31.80;;;;;;;;;;5059719;28;20247;-72
2021/01/11 03:19:34;;;;;;;78.57;34.23;;;;;;;;;;5083895;28;20258;-72
2021/01/11 03:22:00;;;;;;;85.37;34.43;;;;;;;;;;5062881;28;20308;-72
2021/01/11 03:24:25;;;;;;;81.07;33.37;;;;;;;;;;5088778;28;20230;-72
2021/01/11 03:26:51;;;;;;;74.80;32.80;;;;;;;;;;5081408;28;20195;-72
2021/01/11 03:29:18;;;;;;;84.30;33.90;;;;;;;;;;5086240;28;20180;-72
2021/01/11 03:31:44;;;;;;;84.57;34.20;;;;;;;;;;5081674;28;20191;-72
2021/01/11 03:34:11;;;;;;;82.80;33.60;;;;;;;;;;5086507;28;20718;-72
2021/01/11 03:36:37;;;;;;;75.97;32.30;;;;;;;;;;5077375;28;20188;-72
2021/01/11 03:39:04;;;;;;;80.90;33.47;;;;;;;;;;5087969;28;21118;-72
2021/01/11 03:41:29;;;;;;;81.43;33.40;;;;;;;;;;5080660;28;20266;-72
2021/01/11 03:43:55;;;;;;;77.27;32.97;;;;;;;;;;5087246;28;20271;-72
2021/01/11 03:46:20;;;;;;;80.93;32.23;;;;;;;;;;5090009;28;20213;-72
2021/01/11 03:48:46;;;;;;;82.53;33.07;;;;;;;;;;5076425;28;20191;-72
2021/01/11 03:51:12;;;;;;;80.63;33.77;;;;;;;;;;5083873;28;20185;-72
2021/01/11 03:53:38;;;;;;;82.97;33.43;;;;;;;;;;5079755;28;20651;-72
2021/01/11 03:56:05;;;;;;;87.57;34.17;;;;;;;;;;5075999;28;20215;-72
2021/01/11 03:58:31;;;;;;;80.93;33.87;;;;;;;;;;5079228;28;20536;-72
2021/01/11 04:00:59;;;;;;;80.67;32.97;;;;;;;;;;5078421;28;20204;-72
2021/01/11 04:03:26;;;;;;;79.30;32.17;;;;;;;;;;5077518;28;20196;-72
2021/01/11 04:05:51;;;;;;;84.57;34.70;;;;;;;;;;5088338;28;20208;-72
2021/01/11 04:08:17;;;;;;;84.27;32.17;;;;;;;;;;5075534;28;20183;-72
2021/01/11 04:10:42;;;;;;;82.90;33.00;;;;;;;;;;5085442;28;20675;-72
2021/01/11 04:13:08;;;;;;;78.87;31.97;;;;;;;;;;5078308;28;20177;-72
2021/01/11 04:15:34;;;;;;;81.10;33.50;;;;;;;;;;5086738;28;20320;-72
2021/01/11 04:18:00;;;;;;;82.20;33.57;;;;;;;;;;5082355;28;20184;-72
2021/01/11 04:20:26;;;;;;;80.13;33.03;;;;;;;;;;5085941;28;20200;-72
2021/01/11 04:22:51;;;;;;;76.17;31.57;;;;;;;;;;5084274;28;20195;-72
2021/01/11 04:25:17;;;;;;;82.60;32.77;;;;;;;;;;5078877;28;20181;-72
2021/01/11 04:27:43;;;;;;;78.87;32.50;;;;;;;;;;5085715;28;20188;-72
2021/01/11 04:30:10;;;;;;;81.70;30.77;;;;;;;;;;5062466;28;20184;-72
2021/01/11 04:32:36;;;;;;;81.93;33.10;;;;;;;;;;5084076;28;20210;-72
2021/01/11 04:35:08;;;;;;;74.67;31.20;;;;;;;;;;5079464;28;20192;-72
2021/01/11 04:37:35;;;;;;;78.90;31.37;;;;;;;;;;5087106;28;20236;-72
2021/01/11 04:40:00;;;;;;;84.97;32.93;;;;;;;;;;5079600;28;20564;-72
2021/01/11 04:42:31;;;;;;;77.53;31.90;;;;;;;;;;5072563;28;20176;-72
2021/01/11 04:44:58;;;;;;;79.80;32.97;;;;;;;;;;5080417;28;20198;-72
2021/01/11 04:47:24;;;;;;;89.70;32.97;;;;;;;;;;5088860;28;20229;-72
2021/01/11 04:49:52;;;;;;;84.83;32.37;;;;;;;;;;5080154;28;20180;-72
2021/01/11 04:52:18;;;;;;;86.17;33.07;;;;;;;;;;5088047;28;20214;-72
2021/01/11 04:54:48;;;;;;;89.37;32.23;;;;;;;;;;5088516;28;20196;-72
2021/01/11 04:57:15;;;;;;;77.43;31.63;;;;;;;;;;5081025;28;20176;-73
2021/01/11 04:59:48;;;;;;;83.40;32.00;;;;;;;;;;5071162;28;20244;-73
2021/01/11 05:02:20;;;;;;;88.60;33.13;;;;;;;;;;5078634;28;20240;-73
2021/01/11 05:04:45;;;;;;;88.73;31.57;;;;;;;;;;5085757;28;20180;-73
2021/01/11 05:07:21;;;;;;;76.43;31.30;;;;;;;;;;5079393;28;20253;-73
2021/01/11 05:09:46;;;;;;;85.80;31.07;;;;;;;;;;5086143;28;20179;-72
2021/01/11 05:12:14;;;;;;;84.03;30.57;;;;;;;;;;5080578;28;20589;-72
2021/01/11 05:14:41;;;;;;;94.13;33.37;;;;;;;;;;5084784;28;20202;-73
2021/01/11 05:17:06;;;;;;;84.30;31.63;;;;;;;;;;5080433;28;20741;-72
2021/01/11 05:19:32;;;;;;;82.60;31.37;;;;;;;;;;5066087;28;20238;-73
2021/01/11 05:21:58;;;;;;;89.90;32.33;;;;;;;;;;5080210;28;20288;-73
2021/01/11 05:24:43;;;;;;;88.60;31.13;;;;;;;;;;5071395;28;20674;-72
2021/01/11 05:27:09;;;;;;;91.87;33.17;;;;;;;;;;5070956;28;20508;-73
2021/01/11 05:29:37;;;;;;;83.17;32.57;;;;;;;;;;5084848;28;20184;-73
2021/01/11 05:32:04;;;;;;;97.80;33.63;;;;;;;;;;5080079;28;20191;-72
2021/01/11 05:34:50;;;;;;;96.43;34.53;;;;;;;;;;5085234;28;20598;-73
2021/01/11 05:37:39;;;;;;;103.63;35.77;;;;;;;;;;5078693;28;20219;-72
2021/01/11 05:40:26;;;;;;;95.13;34.00;;;;;;;;;;5087016;28;20195;-72
2021/01/11 05:42:54;;;;;;;91.90;33.40;;;;;;;;;;5056649;28;20188;-72
2021/01/11 05:45:29;;;;;;;100.63;33.17;;;;;;;;;;5086870;28;20551;-73
2021/01/11 05:48:03;;;;;;;95.10;31.63;;;;;;;;;;5077310;28;20307;-72
2021/01/11 05:50:39;;;;;;;89.37;31.73;;;;;;;;;;5085847;28;20160;-72
2021/01/11 05:53:13;;;;;;;86.83;31.03;;;;;;;;;;5075104;28;21834;-73
2021/01/11 05:55:38;;;;;;;88.77;30.70;;;;;;;;;;5084712;28;20171;-72
2021/01/11 05:58:04;;;;;;;81.63;30.33;;;;;;;;;;5076719;28;20590;-73
2021/01/11 06:00:32;;;;;;;81.13;30.20;;;;;;;;;;5082881;28;20203;-73
2021/01/11 06:02:59;;;;;;;87.33;29.20;;;;;;;;;;5080492;28;20187;-73
2021/01/11 06:05:25;;;;;;;76.33;28.37;;;;;;;;;;5059817;28;20583;-73
2021/01/11 06:07:51;;;;;;;72.30;27.60;;;;;;;;;;5084530;28;20245;-73
2021/01/11 06:10:18;;;;;;;75.00;26.83;;;;;;;;;;5077923;28;20198;-73
2021/01/11 06:12:45;;;;;;;79.43;29.80;;;;;;;;;;5083608;28;21268;-73
2021/01/11 06:15:15;;;;;;;78.10;27.57;;;;;;;;;;5077757;28;20188;-73
2021/01/11 06:17:43;;;;;;;77.13;27.13;;;;;;;;;;5082413;28;20574;-73
2021/01/11 06:20:14;;;;;;;79.40;27.73;;;;;;;;;;5073764;28;20212;-73
2021/01/11 06:22:45;;;;;;;73.27;26.47;;;;;;;;;;5077358;28;20266;-73
2021/01/11 06:25:22;;;;;;;66.13;24.73;;;;;;;;;;5075734;28;20193;-73
2021/01/11 06:28:02;;;;;;;73.50;26.67;;;;;;;;;;5083293;28;20288;-73
2021/01/11 06:30:33;;;;;;;76.87;26.03;;;;;;;;;;5075439;28;20229;-73
2021/01/11 06:33:25;;;;;;;74.00;26.13;;;;;;;;;;5085679;28;20187;-74
2021/01/11 06:35:53;;;;;;;77.60;26.73;;;;;;;;;;5046708;28;20241;-72
2021/01/11 06:38:29;;;;;;;77.07;26.37;;;;;;;;;;5060351;28;20315;-72
2021/01/11 06:41:04;;;;;;;69.97;25.60;;;;;;;;;;5073391;28;20291;-72
2021/01/11 06:43:42;;;;;;;72.87;25.40;;;;;;;;;;5083564;28;20529;-72
2021/01/11 06:46:10;;;;;;;73.23;25.13;;;;;;;;;;5076774;28;20674;-72
2021/01/11 06:48:39;;;;;;;72.87;25.83;;;;;;;;;;5082639;28;20176;-72
2021/01/11 06:51:09;;;;;;;73.17;26.97;;;;;;;;;;5057618;28;20180;-73
2021/01/11 06:53:36;;;;;;;75.23;25.83;;;;;;;;;;5060260;28;20250;-72
2021/01/11 06:56:09;;;;;;;72.17;26.23;;;;;;;;;;5075660;28;20239;-72
2021/01/11 06:58:37;;;;;;;65.43;24.47;;;;;;;;;;5069138;28;20171;-72
2021/01/11 07:01:14;;;;;;;72.47;24.77;;;;;;;;;;5076663;28;20266;-72
2021/01/11 07:03:49;;;;;;;77.07;27.47;;;;;;;;;;5066498;28;20642;-72
2021/01/11 07:06:39;;;;;;;82.83;26.77;;;;;;;;;;5078130;28;20539;-72
2021/01/11 07:09:17;;;;;;;72.73;26.87;;;;;;;;;;5085583;28;20184;-73
2021/01/11 07:11:45;;;;;;;79.07;26.60;;;;;;;;;;5075814;28;20177;-72
2021/01/11 07:14:12;;;;;;;78.77;28.47;;;;;;;;;;5087002;28;20218;-72
2021/01/11 07:16:42;;;;;;;66.87;25.33;;;;;;;;;;5087124;28;20183;-72
2021/01/11 07:19:09;;;;;;;80.83;27.83;;;;;;;;;;5081411;28;20556;-72
2021/01/11 07:21:38;;;;;;;75.57;27.93;;;;;;;;;;5068709;28;20172;-72
2021/01/11 07:24:06;;;;;;;88.33;29.87;;;;;;;;;;5076271;28;20184;-72
2021/01/11 07:26:33;;;;;;;75.97;28.23;;;;;;;;;;5065000;28;20180;-72
2021/01/11 07:29:02;;;;;;;84.77;29.73;;;;;;;;;;5078579;28;20532;-72
2021/01/11 07:31:33;;;;;;;76.63;28.27;;;;;;;;;;5089611;28;20210;-72
2021/01/11 07:34:07;;;;;;;81.77;28.90;;;;;;;;;;5077215;28;20208;-72
2021/01/11 07:36:46;;;;;;;94.90;32.07;;;;;;;;;;5070027;28;20178;-72
2021/01/11 07:39:12;;;;;;;94.37;31.30;;;;;;;;;;5077370;28;20558;-72
2021/01/11 07:41:42;;;;;;;95.07;32.33;;;;;;;;;;5084012;28;20180;-72
2021/01/11 07:44:17;;;;;;;87.67;32.73;;;;;;;;;;5060686;28;20564;-72
2021/01/11 07:46:50;;;;;;;89.27;33.10;;;;;;;;;;5084191;28;20642;-72
2021/01/11 07:49:16;;;;;;;89.97;33.00;;;;;;;;;;5055375;28;20249;-72
2021/01/11 07:51:46;;;;;;;96.37;35.37;;;;;;;;;;5087086;28;20652;-72
2021/01/11 07:54:22;;;;;;;104.90;36.10;;;;;;;;;;5076366;28;20188;-72
2021/01/11 07:56:49;;;;;;;104.70;37.47;;;;;;;;;;5086036;28;20233;-72
2021/01/11 07:59:15;;;;;;;99.53;35.83;;;;;;;;;;5077007;28;21284;-72
2021/01/11 08:01:42;;;;;;;105.00;38.60;;;;;;;;;;5069772;28;20276;-72
2021/01/11 08:04:10;;;;;;;98.63;37.57;;;;;;;;;;5078616;28;20193;-72
2021/01/11 08:06:47;;;;;;;105.53;37.87;;;;;;;;;;5086069;28;20230;-72
2021/01/11 08:09:13;;;;;;;97.00;36.10;;;;;;;;;;5079536;28;20175;-72
2021/01/11 08:11:40;;;;;;;102.60;37.37;;;;;;;;;;5086217;28;20188;-72
2021/01/11 08:14:09;;;;;;;97.07;38.40;;;;;;;;;;5069599;28;20192;-72
2021/01/11 08:16:35;;;;;;;103.60;39.47;;;;;;;;;;5077396;28;20192;-72
2021/01/11 08:19:11;;;;;;;93.87;36.40;;;;;;;;;;5086603;28;20188;-72
2021/01/11 08:21:38;;;;;;;98.03;36.60;;;;;;;;;;5058042;28;20176;-72
2021/01/11 08:24:09;;;;;;;96.60;38.50;;;;;;;;;;5067746;28;20235;-72
2021/01/11 08:26:49;;;;;;;89.30;36.93;;;;;;;;;;5063897;28;20204;-72
2021/01/11 08:29:15;;;;;;;90.50;36.27;;;;;;;;;;5086469;28;20208;-72
2021/01/11 08:31:43;;;;;;;89.40;37.53;;;;;;;;;;5077845;28;20183;-72
2021/01/11 08:34:08;;;;;;;96.33;38.87;;;;;;;;;;5084643;28;20674;-72
2021/01/11 08:36:34;;;;;;;100.90;39.40;;;;;;;;;;5062098;28;20188;-72
2021/01/11 08:39:19;;;;;;;97.80;40.23;;;;;;;;;;5085204;28;20184;-72
2021/01/11 08:41:50;;;;;;;86.57;38.20;;;;;;;;;;5076569;28;20660;-72
2021/01/11 08:44:31;;;;;;;88.87;39.17;;;;;;;;;;5086575;28;20832;-72
2021/01/11 08:47:02;;;;;;;89.93;40.30;;;;;;;;;;5074470;28;20184;-72
2021/01/11 08:49:27;;;;;;;89.30;39.93;;;;;;;;;;5085656;28;20187;-72
2021/01/11 08:51:53;;;;;;;91.67;37.87;;;;;;;;;;5076748;28;20199;-72
2021/01/11 08:54:29;;;;;;;90.00;40.07;;;;;;;;;;5086761;28;20186;-72
2021/01/11 08:56:55;;;;;;;86.13;39.83;;;;;;;;;;5075583;28;20206;-72
2021/01/11 08:59:21;;;;;;;84.47;39.40;;;;;;;;;;5068789;28;20203;-72
2021/01/11 09:01:47;;;;;;;87.37;38.50;;;;;;;;;;5086693;28;20194;-72
2021/01/11 09:04:35;;;;;;;86.63;40.83;;;;;;;;;;5075702;28;20631;-72
2021/01/11 09:07:05;;;;;;;78.93;39.40;;;;;;;;;;5084621;28;20204;-72
2021/01/11 09:09:32;;;;;;;84.53;39.90;;;;;;;;;;5076605;28;20196;-72
2021/01/11 09:12:05;;;;;;;86.60;39.70;;;;;;;;;;5065137;28;20192;-72
2021/01/11 09:14:32;;;;;;;84.77;41.33;;;;;;;;;;5077063;28;20223;-72
2021/01/11 09:17:04;;;;;;;87.10;39.10;;;;;;;;;;5063807;28;20215;-72
2021/01/11 09:19:30;;;;;;;85.73;38.93;;;;;;;;;;5060887;28;20204;-72
2021/01/11 09:22:01;;;;;;;81.00;39.20;;;;;;;;;;5085338;28;20202;-72
2021/01/11 09:24:27;;;;;;;83.50;39.40;;;;;;;;;;5071376;28;20191;-72
2021/01/11 09:26:53;;;;;;;82.97;40.60;;;;;;;;;;5082886;28;20705;-73
2021/01/11 09:29:19;;;;;;;79.47;38.87;;;;;;;;;;5075602;28;20294;-72
2021/01/11 09:31:44;;;;;;;81.63;39.27;;;;;;;;;;5084185;28;20188;-73
2021/01/11 09:34:10;;;;;;;79.33;39.43;;;;;;;;;;5073996;28;20306;-72
2021/01/11 09:36:37;;;;;;;77.70;36.23;;;;;;;;;;5077900;28;20196;-72
2021/01/11 09:39:05;;;;;;;77.43;38.13;;;;;;;;;;5055303;28;20188;-72
2021/01/11 09:41:31;;;;;;;76.37;35.97;;;;;;;;;;5065077;28;20196;-72
2021/01/11 09:43:56;;;;;;;72.40;36.50;;;;;;;;;;5041019;28;20235;-72
2021/01/11 09:46:21;;;;;;;71.70;36.33;;;;;;;;;;5057115;28;20615;-72
2021/01/11 09:48:47;;;;;;;77.80;37.87;;;;;;;;;;5046667;28;20544;-73
2021/01/11 09:51:12;;;;;;;82.67;37.50;;;;;;;;;;5037232;28;20174;-73
2021/01/11 09:53:37;;;;;;;74.53;34.50;;;;;;;;;;5065580;28;20264;-73
2021/01/11 09:56:03;;;;;;;80.07;38.07;;;;;;;;;;5056218;28;20200;-73
2021/01/11 09:58:28;;;;;;;75.77;36.60;;;;;;;;;;5066748;28;20227;-73
2021/01/11 10:00:54;;;;;;;72.23;35.50;;;;;;;;;;5053479;28;20606;-73
2021/01/11 10:03:21;;;;;;;75.80;36.23;;;;;;;;;;5046559;28;20204;-72
2021/01/11 10:05:55;;;;;;;74.30;36.20;;;;;;;;;;5054375;28;20223;-73
2021/01/11 10:08:20;;;;;;;76.87;37.00;;;;;;;;;;5061926;28;20250;-72
2021/01/11 10:10:45;;;;;;;77.03;36.50;;;;;;;;;;5056948;28;20185;-72
2021/01/11 10:13:10;;;;;;;76.77;35.57;;;;;;;;;;5061811;28;20197;-72
2021/01/11 10:15:36;;;;;;;70.03;34.67;;;;;;;;;;5058188;28;20193;-72
2021/01/11 10:18:01;;;;;;;69.90;34.87;;;;;;;;;;5055430;28;20695;-72
2021/01/11 10:20:26;;;;;;;70.67;33.73;;;;;;;;;;5061677;28;20303;-72
2021/01/11 10:22:52;;;;;;;68.33;34.27;;;;;;;;;;5056414;28;20195;-73
2021/01/11 10:25:18;;;;;;;66.90;32.73;;;;;;;;;;5066124;28;20258;-72
2021/01/11 10:27:43;;;;;;;71.10;34.77;;;;;;;;;;5037892;28;20913;-72
2021/01/11 10:30:09;;;;;;;74.47;35.30;;;;;;;;;;5065614;28;20180;-72
2021/01/11 10:32:35;;;;;;;65.70;31.77;;;;;;;;;;5056296;28;20195;-72
2021/01/11 10:35:00;;;;;;;75.60;34.37;;;;;;;;;;5065706;28;20193;-72
2021/01/11 10:37:26;;;;;;;69.60;34.83;;;;;;;;;;5062235;28;20598;-72
2021/01/11 10:39:51;;;;;;;63.17;33.20;;;;;;;;;;5085666;28;20285;-73
2021/01/11 10:42:16;;;;;;;62.33;33.00;;;;;;;;;;5058723;28;20192;-72
2021/01/11 10:44:42;;;;;;;65.50;33.00;;;;;;;;;;5086167;28;20686;-72
2021/01/11 10:47:07;;;;;;;74.60;34.90;;;;;;;;;;5081026;28;20191;-73
2021/01/11 10:49:32;;;;;;;64.43;32.97;;;;;;;;;;5070656;28;20574;-72
2021/01/11 10:51:58;;;;;;;66.63;33.87;;;;;;;;;;5085673;28;20199;-72
2021/01/11 10:54:27;;;;;;;65.83;33.20;;;;;;;;;;5080701;28;20674;-72
2021/01/11 10:56:52;;;;;;;64.70;32.93;;;;;;;;;;5084830;28;20192;-72
2021/01/11 10:59:18;;;;;;;65.93;32.87;;;;;;;;;;5061738;28;20253;-72
2021/01/11 11:01:43;;;;;;;67.53;32.80;;;;;;;;;;5082632;28;20937;-72
2021/01/11 11:04:13;;;;;;;65.60;33.23;;;;;;;;;;5079520;28;20184;-72
2021/01/11 11:06:38;;;;;;;71.00;34.53;;;;;;;;;;5083126;28;21369;-71
2021/01/11 11:09:04;;;;;;;65.30;33.90;;;;;;;;;;5079244;28;20192;-72
2021/01/11 11:11:29;;;;;;;70.10;33.87;;;;;;;;;;5084296;28;20192;-72
2021/01/11 11:13:55;;;;;;;59.27;31.43;;;;;;;;;;5077776;28;20215;-73
2021/01/11 11:16:21;;;;;;;63.10;33.50;;;;;;;;;;5089212;28;20275;-71
2021/01/11 11:18:46;;;;;;;60.63;32.73;;;;;;;;;;5083258;28;20168;-72
2021/01/11 11:21:12;;;;;;;61.80;33.47;;;;;;;;;;5083325;28;20782;-71
2021/01/11 11:23:38;;;;;;;62.90;33.27;;;;;;;;;;5089578;28;20264;-71
2021/01/11 11:26:05;;;;;;;59.27;33.43;;;;;;;;;;5078855;28;20580;-71
2021/01/11 11:28:31;;;;;;;60.07;32.97;;;;;;;;;;5087105;28;20180;-71
2021/01/11 11:30:57;;;;;;;61.87;33.67;;;;;;;;;;5080986;28;20639;-71
2021/01/11 11:33:23;;;;;;;63.33;33.00;;;;;;;;;;5088109;28;20185;-71
2021/01/11 11:35:49;;;;;;;56.33;31.70;;;;;;;;;;5079472;28;20197;-72
2021/01/11 11:38:14;;;;;;;56.43;31.63;;;;;;;;;;5086449;28;20220;-72
2021/01/11 11:40:40;;;;;;;60.80;32.10;;;;;;;;;;5078782;28;20218;-72
2021/01/11 11:43:05;;;;;;;57.63;31.63;;;;;;;;;;5088995;28;21287;-72
2021/01/11 11:45:33;;;;;;;58.03;31.67;;;;;;;;;;5076045;28;20314;-72
2021/01/11 11:47:58;;;;;;;59.93;32.27;;;;;;;;;;5068537;28;20197;-72
2021/01/11 11:50:24;;;;;;;54.27;31.30;;;;;;;;;;5083337;28;20242;-72
2021/01/11 11:52:50;;;;;;;52.97;30.60;;;;;;;;;;5083605;28;20191;-73
2021/01/11 11:55:15;;;;;;;53.10;30.07;;;;;;;;;;5088548;28;20180;-73
2021/01/11 11:57:42;;;;;;;54.33;30.93;;;;;;;;;;5075060;28;20198;-73
2021/01/11 12:00:09;;;;;;;60.27;30.57;;;;;;;;;;5087982;28;20208;-73
2021/01/11 12:02:34;;;;;;;54.47;31.03;;;;;;;;;;5078683;28;20655;-73
2021/01/11 12:05:00;;;;;;;54.37;31.57;;;;;;;;;;5066907;28;20279;-73
2021/01/11 12:07:27;;;;;;;50.13;30.33;;;;;;;;;;5078646;28;20210;-73
2021/01/11 12:09:54;;;;;;;54.80;30.23;;;;;;;;;;5062739;28;20176;-73
2021/01/11 12:12:19;;;;;;;56.60;30.93;;;;;;;;;;5078147;28;20235;-73
2021/01/11 12:14:45;;;;;;;54.83;31.03;;;;;;;;;;5068021;28;20523;-73
2021/01/11 12:17:10;;;;;;;51.77;30.67;;;;;;;;;;5075949;28;20191;-73
2021/01/11 12:19:35;;;;;;;52.13;30.37;;;;;;;;;;5086674;28;20211;-73
2021/01/11 12:22:04;;;;;;;53.67;31.00;;;;;;;;;;5081685;28;20238;-73
2021/01/11 12:24:30;;;;;;;51.87;30.03;;;;;;;;;;5084798;28;20176;-73
2021/01/11 12:26:57;;;;;;;52.40;30.03;;;;;;;;;;5085278;28;20192;-73
2021/01/11 12:29:22;;;;;;;50.50;29.93;;;;;;;;;;5075907;28;21634;-73
2021/01/11 12:31:49;;;;;;;54.37;31.77;;;;;;;;;;5083852;28;20212;-73
2021/01/11 12:34:14;;;;;;;50.27;28.63;;;;;;;;;;5079368;28;20192;-73
2021/01/11 12:36:40;;;;;;;52.27;30.33;;;;;;;;;;5063242;28;20196;-73
2021/01/11 12:39:09;;;;;;;52.53;31.27;;;;;;;;;;5061634;28;20219;-73
2021/01/11 12:41:35;;;;;;;51.27;31.27;;;;;;;;;;5086645;28;20281;-73
2021/01/11 12:44:01;;;;;;;52.03;29.83;;;;;;;;;;5077063;28;20216;-73
2021/01/11 12:46:26;;;;;;;51.00;30.93;;;;;;;;;;5067463;28;20229;-73
2021/01/11 12:48:52;;;;;;;53.10;29.97;;;;;;;;;;5075589;28;20198;-73
2021/01/11 12:51:19;;;;;;;51.17;29.73;;;;;;;;;;5082824;28;20184;-73
2021/01/11 12:53:46;;;;;;;48.47;29.10;;;;;;;;;;5075117;28;20196;-73
2021/01/11 12:56:19;;;;;;;47.53;29.20;;;;;;;;;;5090092;28;20241;-73
2021/01/11 12:58:45;;;;;;;48.80;28.10;;;;;;;;;;5084709;28;20228;-73
2021/01/11 13:01:20;;;;;;;46.67;27.93;;;;;;;;;;5075984;28;20212;-73
2021/01/11 13:03:47;;;;;;;49.50;29.67;;;;;;;;;;5083815;28;20594;-73
2021/01/11 13:06:27;;;;;;;46.23;28.37;;;;;;;;;;5073424;28;20223;-73
2021/01/11 13:08:54;;;;;;;45.60;27.37;;;;;;;;;;5084604;28;20594;-73
2021/01/11 13:11:21;;;;;;;42.90;26.03;;;;;;;;;;5062030;28;20191;-72
2021/01/11 13:13:49;;;;;;;45.40;27.57;;;;;;;;;;5083557;28;20606;-73
2021/01/11 13:16:36;;;;;;;41.93;26.47;;;;;;;;;;5073798;28;20192;-73
2021/01/11 13:19:12;;;;;;;43.13;26.17;;;;;;;;;;5077784;28;20646;-73
2021/01/11 13:21:38;;;;;;;43.50;26.20;;;;;;;;;;5068310;28;20708;-73
2021/01/11 13:24:04;;;;;;;44.70;27.67;;;;;;;;;;5085803;28;20195;-73
2021/01/11 13:26:32;;;;;;;41.23;25.93;;;;;;;;;;5073452;28;20219;-73
2021/01/11 13:29:00;;;;;;;41.93;25.83;;;;;;;;;;5084532;28;20237;-73
2021/01/11 13:31:27;;;;;;;40.57;25.43;;;;;;;;;;5054825;28;20234;-73
2021/01/11 13:33:53;;;;;;;43.27;27.40;;;;;;;;;;5084457;28;20190;-73
2021/01/11 13:36:21;;;;;;;38.60;25.53;;;;;;;;;;5073145;28;20330;-73
2021/01/11 13:38:46;;;;;;;42.17;25.33;;;;;;;;;;5083646;28;20746;-71
2021/01/11 13:41:12;;;;;;;42.10;24.43;;;;;;;;;;5075181;28;20299;-72
2021/01/11 13:43:37;;;;;;;40.07;24.80;;;;;;;;;;5059738;28;20507;-72
2021/01/11 13:46:02;;;;;;;44.27;25.50;;;;;;;;;;5078558;28;20199;-72
2021/01/11 13:48:27;;;;;;;43.13;25.03;;;;;;;;;;5061155;28;20560;-72
2021/01/11 13:50:53;;;;;;;40.30;25.43;;;;;;;;;;5084040;28;20199;-72
2021/01/11 13:53:18;;;;;;;40.43;24.47;;;;;;;;;;5063467;28;20192;-72
2021/01/11 13:55:43;;;;;;;45.33;25.77;;;;;;;;;;5080599;28;20230;-72
2021/01/11 13:58:09;;;;;;;38.77;23.83;;;;;;;;;;5073746;28;20196;-72
2021/01/11 14:00:34;;;;;;;38.23;22.77;;;;;;;;;;5084118;28;20215;-72
2021/01/11 14:02:59;;;;;;;38.20;22.60;;;;;;;;;;5077972;28;20271;-72
2021/01/11 14:05:25;;;;;;;37.00;23.13;;;;;;;;;;5081213;28;20215;-72
2021/01/11 14:07:50;;;;;;;36.10;22.80;;;;;;;;;;5057597;28;20187;-72
2021/01/11 14:10:16;;;;;;;33.93;22.07;;;;;;;;;;5084021;28;20191;-72
2021/01/11 14:12:42;;;;;;;34.57;22.00;;;;;;;;;;5054315;28;20191;-72
2021/01/11 14:15:10;;;;;;;35.97;22.77;;;;;;;;;;5085824;28;20215;-72
2021/01/11 14:17:35;;;;;;;34.50;22.77;;;;;;;;;;5082876;28;20179;-72
2021/01/11 14:20:02;;;;;;;35.87;23.63;;;;;;;;;;5076717;28;20253;-72
2021/01/11 14:22:27;;;;;;;37.37;23.30;;;;;;;;;;5091171;28;20535;-72